createdAt,value
2023-11-20T00:07:06.838Z,99013.56
2023-11-20T00:15:30.069Z,99022.27
2023-11-20T00:23:53.089Z,99024.98
2023-11-20T00:32:16.111Z,99012.77
2023-11-20T00:40:39.231Z,99010.55
2023-11-20T00:49:06.727Z,99008.88
2023-11-20T00:57:29.833Z,99010.30
2023-11-20T01:05:53.833Z,99011.17
2023-11-20T01:14:18.148Z,99010.02
2023-11-20T01:22:41.047Z,99006.91
2023-11-20T01:31:04.702Z,99007.64
2023-11-20T01:39:28.558Z,99010.42
2023-11-20T01:47:51.959Z,99003.70
2023-11-20T01:56:15.827Z,98995.08
2023-11-20T02:04:40.419Z,98988.89
2023-11-20T02:13:05.620Z,98994.05
2023-11-20T02:21:28.693Z,98995.95
2023-11-20T02:29:55.913Z,98986.61
2023-11-20T02:38:19.382Z,98991.47
2023-11-20T02:46:44.512Z,98987.55
2023-11-20T02:55:08.137Z,98990.78
2023-11-20T03:03:32.226Z,98991.16
2023-11-20T03:11:55.293Z,98985.30
2023-11-20T03:20:18.191Z,98972.99
2023-11-20T03:28:42.118Z,98971.66
2023-11-20T03:37:05.077Z,98975.59
2023-11-20T03:45:28.040Z,98969.23
2023-11-20T03:53:51.625Z,98952.80
2023-11-20T04:02:17.580Z,98949.52
2023-11-20T04:10:40.858Z,98947.16
2023-11-20T04:19:04.743Z,98938.61
2023-11-20T04:27:28.082Z,98937.76
2023-11-20T04:35:52.451Z,98943.80
2023-11-20T04:44:16.133Z,98938.96
2023-11-20T04:52:39.398Z,98944.77
2023-11-20T05:01:04.226Z,98941.72
2023-11-20T05:09:27.212Z,98949.88
2023-11-20T05:17:50.639Z,98951.27
2023-11-20T05:26:13.522Z,98956.23
2023-11-20T05:34:36.702Z,98956.98
2023-11-20T05:42:59.879Z,98955.34
2023-11-20T05:51:22.814Z,98956.32
2023-11-20T05:59:46.954Z,98960.73
2023-11-20T06:08:10.274Z,98960.63
2023-11-20T06:16:33.315Z,98966.21
2023-11-20T06:24:56.494Z,98969.98
2023-11-20T06:33:21.375Z,98976.32
2023-11-20T06:41:44.724Z,98978.39
2023-11-20T06:50:08.252Z,98984.63
2023-11-20T06:58:34.862Z,98991.84
2023-11-20T07:06:57.980Z,98999.16
2023-11-20T07:15:25.022Z,99003.31
2023-11-20T07:23:48.109Z,99007.84
2023-11-20T07:32:11.209Z,99011.73
2023-11-20T07:40:34.316Z,99016.90
2023-11-20T07:48:57.360Z,99022.33
2023-11-20T07:57:21.333Z,99019.86
2023-11-20T08:05:49.590Z,99018.80
2023-11-20T08:14:16.836Z,99025.66
2023-11-20T08:22:41.369Z,99026.80
2023-11-20T08:31:06.309Z,99028.06
2023-11-20T08:39:33.426Z,99025.08
2023-11-20T08:47:58.170Z,99030.85
2023-11-20T08:56:21.143Z,99033.88
2023-11-20T09:04:44.153Z,99032.77
2023-11-20T09:13:09.460Z,99026.14
2023-11-20T09:21:33.802Z,99026.59
2023-11-20T09:29:59.839Z,99031.40
2023-11-20T09:38:22.835Z,99030.60
2023-11-20T09:46:46.182Z,99023.60
2023-11-20T09:55:09.651Z,99017.27
2023-11-20T10:03:33.136Z,99021.66
2023-11-20T10:11:57.389Z,99019.60
2023-11-20T10:20:20.294Z,99024.77
2023-11-20T10:28:43.427Z,99021.75
2023-11-20T10:37:10.730Z,99006.29
2023-11-20T10:45:35.163Z,99011.77
2023-11-20T10:54:05.585Z,99017.22
2023-11-20T11:02:29.730Z,99013.12
2023-11-20T11:10:53.576Z,99012.19
2023-11-20T11:19:22.817Z,99007.92
2023-11-20T11:27:58.793Z,98996.95
2023-11-20T11:36:24.801Z,98993.16
2023-11-20T11:44:49.051Z,98983.25
2023-11-20T11:53:12.693Z,98980.67
2023-11-20T12:01:48.243Z,98969.93
2023-11-20T12:10:14.172Z,98972.77
2023-11-20T12:18:38.732Z,98977.13
2023-11-20T12:27:01.981Z,98971.24
2023-11-20T12:35:25.794Z,98968.11
2023-11-20T12:43:49.336Z,98972.02
2023-11-20T12:52:12.649Z,98970.16
2023-11-20T13:00:36.256Z,98972.71
2023-11-20T13:08:59.460Z,98971.08
2023-11-20T13:17:23.978Z,98976.30
2023-11-20T13:25:49.488Z,98969.87
2023-11-20T13:34:12.617Z,98965.05
2023-11-20T13:42:36.568Z,98967.16
2023-11-20T13:50:59.974Z,98967.82
2023-11-20T13:59:23.278Z,98968.56
2023-11-20T14:07:46.557Z,98969.04
2023-11-20T14:16:13.343Z,98983.28
2023-11-20T14:24:36.848Z,98983.45
2023-11-20T14:32:59.936Z,99000.75
2023-11-20T14:41:23.606Z,99008.38
2023-11-20T14:49:47.341Z,98999.22
2023-11-20T14:58:10.622Z,99007.09
2023-11-20T15:06:34.047Z,99012.92
2023-11-20T15:14:56.910Z,99014.64
2023-11-20T15:23:20.064Z,99019.45
2023-11-20T15:31:43.152Z,99018.80
2023-11-20T15:40:10.004Z,99020.00
2023-11-20T15:48:33.307Z,99020.12
2023-11-20T15:56:56.263Z,99027.95
2023-11-20T16:05:19.385Z,99028.80
2023-11-20T16:13:42.602Z,99035.38
2023-11-20T16:22:06.419Z,99036.20
2023-11-20T16:30:29.857Z,99044.19
2023-11-20T16:38:53.521Z,99051.36
2023-11-20T16:47:23.053Z,99061.02
2023-11-20T16:55:50.355Z,99059.48
2023-11-20T17:04:13.760Z,99062.91
2023-11-20T17:12:38.182Z,99066.66
2023-11-20T17:21:02.470Z,99067.55
2023-11-20T17:29:28.037Z,99068.14
2023-11-20T17:37:57.621Z,99069.02
2023-11-20T17:46:23.074Z,99070.45
2023-11-20T17:54:46.689Z,99072.93
2023-11-20T18:03:12.417Z,99080.76
2023-11-20T18:11:38.364Z,99083.54
2023-11-20T18:20:04.808Z,99085.80
2023-11-20T18:28:31.050Z,99088.78
2023-11-20T18:36:54.852Z,99084.98
2023-11-20T18:45:18.065Z,99089.77
2023-11-20T18:53:45.760Z,99106.15
2023-11-20T19:02:08.877Z,99119.40
2023-11-20T19:10:32.359Z,99118.52
2023-11-20T19:18:56.723Z,99120.22
2023-11-20T19:27:23.485Z,99123.30
2023-11-20T19:35:48.108Z,99120.64
2023-11-20T19:44:12.326Z,99127.79
2023-11-20T19:52:38.354Z,99134.61
2023-11-20T20:01:01.806Z,99135.39
2023-11-20T20:09:24.827Z,99138.75
2023-11-20T20:17:47.984Z,99138.44
2023-11-20T20:26:11.083Z,99140.86
2023-11-20T20:34:34.691Z,99148.61
2023-11-20T20:43:01.408Z,99156.14
2023-11-20T20:51:24.362Z,99146.04
2023-11-20T20:59:48.864Z,99142.49
2023-11-20T21:08:13.467Z,99141.98
2023-11-20T21:16:37.643Z,99150.63
2023-11-20T21:25:00.622Z,99155.52
2023-11-20T21:33:24.335Z,99168.21
2023-11-20T21:41:48.042Z,99171.17
2023-11-20T21:50:11.038Z,99168.09
2023-11-20T21:58:34.016Z,99173.94
2023-11-20T22:06:57.377Z,99178.60
2023-11-20T22:15:20.339Z,99186.56
2023-11-20T22:23:43.331Z,99184.92
2023-11-20T22:32:06.639Z,99184.52
2023-11-20T22:40:29.977Z,99187.21
2023-11-20T22:48:52.919Z,99189.27
2023-11-20T22:57:15.899Z,99191.38
2023-11-20T23:05:39.018Z,99195.17
2023-11-20T23:14:04.126Z,99202.68
2023-11-20T23:22:28.618Z,99205.27
2023-11-20T23:30:51.905Z,99207.15
2023-11-20T23:39:15.725Z,99204.94
2023-11-20T23:47:38.829Z,99194.10
2023-11-20T23:56:02.144Z,99192.73
